Terminal Aerodrome Forecast
Issued by NWS Corpus Christi, TX

Home | Current Version | Previous Version | Text Only | Print | Product List | Glossary On
Versions: 1 2 3 4 5 6 7 8 9 10 11 12 13 14 15 16
829
FTUS44 KCRP 201738
TAFVCT
TAF
KVCT 201738Z 2018/2118 07007KT P6SM VCSH SCT009 BKN090
      TEMPO 2018/2020 -DZ BKN009
     FM202000 25005KT P6SM SCT100
     FM210000 20004KT P6SM SKC
     FM211400 31014G19KT P6SM SKC=

USA.gov is the U.S. government's official web portal to all federal, state and local government web resources and services.